Cap Jervis — A8VL7 — position and weather

sailwx.info

Track history (hours):
 
Tides and Currents Weather Stations Pressure Air Temp Water Temp Dewpoint Dewpoint Depression Visibility Wind Speed Wind Dir Waves Ship Positions

Cap Jervis

Last reported at 2017-Oct-13 06:00 UTC. Time now 2017-Oct-17 01:06 UTC.
Position N 13°24' W 071°00'.

Length 264 m; draft 11.9 m.

Type: Ship (hazmat cat D). MMSI: 636092021.

Wind from 090 at 21 knots

Barometer 1009.8 mb
Air temperature 28.4 ° C
Visibility: greater than 10.8 NM
Dewpoint 23.8 ° C
Water temperature 29.0 ° C

Date/timePositionNaut miles runAvg speedWind from/ knotsBaromVisibWave heightAir tempDewpointWater temp
2017-Oct-13 06:00N 13°24' W 071°00'21618.0 090 / 211009.810.8 28.423.829.0
2017-Oct-12 18:00N 14°36' W 067°30'21017.5 110 / 151010.527.0 32.223.429.0
2017-Oct-12 06:00N 15°48' W 064°06'8317.4 110 / 121011.410.8 28.223.629.0
2017-Oct-12 01:14N 16°15' W 062°45'518.1
2017-Oct-12 00:59N 16°17' W 062°40'918.0
2017-Oct-12 00:31N 16°20' W 062°32'917.7
2017-Oct-12 00:01N 16°23' W 062°23'917.8
2017-Oct-11 23:31N 16°26' W 062°14'917.6
2017-Oct-11 23:01N 16°29' W 062°06'917.5
2017-Oct-11 22:31N 16°31' W 061°57'917.5
2017-Oct-11 22:01N 16°36' W 061°49'917.9
2017-Oct-11 21:31N 16°41' W 061°41'918.1
2017-Oct-11 21:01N 16°46' W 061°33'917.8
2017-Oct-11 20:31N 16°50' W 061°25'917.7
2017-Oct-11 20:01N 16°55' W 061°18'917.5
2017-Oct-11 19:31N 17°00' W 061°10'917.5
2017-Oct-11 19:01N 17°05' W 061°02'917.8
2017-Oct-11 18:31N 17°10' W 060°54'32717.7
2017-Oct-11 00:00N 20°00' W 056°00'20216.8 140 / 81013.7 28.623.328.0
2017-Oct-10 12:00N 21°42' W 052°54'59716.6 140 / 181015.010.8 28.222.927.0
2017-Oct-09 00:00N 26°24' W 043°18'20717.3 270 / 121016.210.8 25.719.127.0
2017-Oct-08 12:00N 27°54' W 039°48'20016.7 240 / 161014.810.8 26.419.026.0
2017-Oct-08 00:00N 29°12' W 036°18'20817.3 180 / 131016.027.0 25.319.226.0
2017-Oct-07 12:00N 30°30' W 032°36'20817.3 180 / 121019.510.8 27.015.726.0
2017-Oct-07 00:00N 31°54' W 028°54'20417.0 070 / 81020.710.8 23.919.225.0
2017-Oct-06 12:00N 32°42' W 025°00'21017.5 090 / 101021.410.8 26.418.024.0
2017-Oct-06 00:00N 33°42' W 021°00'18017.4 070 / 161021.010.8 22.916.723.0
2017-Oct-05 13:37N 34°26' W 017°29'317.7
2017-Oct-05 13:27N 34°27' W 017°26'2618.1
2017-Oct-05 12:00N 34°30' W 016°54'2517.7 070 / 161021.010.8 27.518.822.0
2017-Oct-05 10:35N 34°37' W 016°25'11917.6
2017-Oct-05 03:51N 35°01' W 014°03'616.6
2017-Oct-05 03:31N 35°02' W 013°57'2216.8
2017-Oct-05 02:12N 35°06' W 013°30'317.1
2017-Oct-05 02:00N 35°07' W 013°26'916.9
2017-Oct-05 01:29N 35°08' W 013°16'816.8
2017-Oct-05 01:00N 35°10' W 013°06'2016.8
2017-Oct-04 23:49N 35°13' W 012°42'517.2
2017-Oct-04 23:30N 35°14' W 012°35'917.6
2017-Oct-04 23:01N 35°15' W 012°25'917.4
2017-Oct-04 22:29N 35°17' W 012°14'817.3
2017-Oct-04 22:01N 35°18' W 012°04'917.8
2017-Oct-04 21:31N 35°20' W 011°53'917.8
2017-Oct-04 21:00N 35°21' W 011°42'917.9
2017-Oct-04 20:31N 35°23' W 011°31'1018.1
2017-Oct-04 19:57N 35°24' W 011°19'818.2
2017-Oct-04 19:30N 35°26' W 011°09'1018.1
2017-Oct-04 18:58N 35°27' W 010°58'4417.9
2017-Oct-04 16:30N 35°34' W 010°04'1317.8
2017-Oct-04 15:45N 35°36' W 009°48'417.9
2017-Oct-04 15:30N 35°36' W 009°43'917.7
2017-Oct-04 15:00N 35°37' W 009°32'917.7
2017-Oct-04 14:31N 35°39' W 009°21'2317.6
2017-Oct-04 13:12N 35°42' W 008°53'317.4
2017-Oct-04 13:01N 35°42' W 008°49'917.3
2017-Oct-04 12:31N 35°43' W 008°38'917.8
2017-Oct-04 12:01N 35°45' W 008°28'918.0
2017-Oct-04 11:31N 35°46' W 008°17'918.0
2017-Oct-04 11:00N 35°47' W 008°05'1017.8
2017-Oct-04 10:27N 35°48' W 007°54'817.9
2017-Oct-04 10:00N 35°49' W 007°44'917.8
2017-Oct-04 09:31N 35°50' W 007°33'917.8
2017-Oct-04 09:00N 35°51' W 007°22'31016.8
2017-Oct-03 14:32N 37°09' W 001°09'1018.2
2017-Oct-03 13:58N 37°16' W 000°59'818.1
2017-Oct-03 13:30N 37°21' W 000°51'918.3
2017-Oct-03 13:00N 37°28' W 000°43'918.1
2017-Oct-03 12:30N 37°34' W 000°35'918.0
2017-Oct-03 12:00N 37°41' W 000°28'917.8
2017-Oct-03 11:29N 37°49' W 000°21'  
Track history (hours):
 
Tides and Currents Weather Stations Pressure Air Temp Water Temp Dewpoint Dewpoint Depression Visibility Wind Speed Wind Dir Waves Ship Positions

Cap Jervis

Last reported at 2017-Oct-13 06:00 UTC. Time now 2017-Oct-17 01:06 UTC.
Position N 13°24' W 071°00'.

Length 264 m; draft 11.9 m.

Type: Ship (hazmat cat D). MMSI: 636092021.

Wind from 090 at 21 knots

Barometer 1009.8 mb
Air temperature 28.4 ° C
Visibility: greater than 10.8 NM
Dewpoint 23.8 ° C
Water temperature 29.0 ° C

Date/timePositionNaut miles runAvg speedWind from/ knotsBaromVisibWave heightAir tempDewpointWater temp
2017-Oct-13 06:00N 13°24' W 071°00'21618.0 090 / 211009.810.8 28.423.829.0
2017-Oct-12 18:00N 14°36' W 067°30'21017.5 110 / 151010.527.0 32.223.429.0
2017-Oct-12 06:00N 15°48' W 064°06'8317.4 110 / 121011.410.8 28.223.629.0
2017-Oct-12 01:14N 16°15' W 062°45'518.1
2017-Oct-12 00:59N 16°17' W 062°40'918.0
2017-Oct-12 00:31N 16°20' W 062°32'917.7
2017-Oct-12 00:01N 16°23' W 062°23'917.8
2017-Oct-11 23:31N 16°26' W 062°14'917.6
2017-Oct-11 23:01N 16°29' W 062°06'917.5
2017-Oct-11 22:31N 16°31' W 061°57'917.5
2017-Oct-11 22:01N 16°36' W 061°49'917.9
2017-Oct-11 21:31N 16°41' W 061°41'918.1
2017-Oct-11 21:01N 16°46' W 061°33'917.8
2017-Oct-11 20:31N 16°50' W 061°25'917.7
2017-Oct-11 20:01N 16°55' W 061°18'917.5
2017-Oct-11 19:31N 17°00' W 061°10'917.5
2017-Oct-11 19:01N 17°05' W 061°02'917.8
2017-Oct-11 18:31N 17°10' W 060°54'32717.7
2017-Oct-11 00:00N 20°00' W 056°00'20216.8 140 / 81013.7 28.623.328.0
2017-Oct-10 12:00N 21°42' W 052°54'59716.6 140 / 181015.010.8 28.222.927.0
2017-Oct-09 00:00N 26°24' W 043°18'20717.3 270 / 121016.210.8 25.719.127.0
2017-Oct-08 12:00N 27°54' W 039°48'20016.7 240 / 161014.810.8 26.419.026.0
2017-Oct-08 00:00N 29°12' W 036°18'20817.3 180 / 131016.027.0 25.319.226.0
2017-Oct-07 12:00N 30°30' W 032°36'20817.3 180 / 121019.510.8 27.015.726.0
2017-Oct-07 00:00N 31°54' W 028°54'20417.0 070 / 81020.710.8 23.919.225.0
2017-Oct-06 12:00N 32°42' W 025°00'21017.5 090 / 101021.410.8 26.418.024.0
2017-Oct-06 00:00N 33°42' W 021°00'18017.4 070 / 161021.010.8 22.916.723.0
2017-Oct-05 13:37N 34°26' W 017°29'317.7
2017-Oct-05 13:27N 34°27' W 017°26'2618.1
2017-Oct-05 12:00N 34°30' W 016°54'2517.7 070 / 161021.010.8 27.518.822.0
2017-Oct-05 10:35N 34°37' W 016°25'11917.6
2017-Oct-05 03:51N 35°01' W 014°03'616.6
2017-Oct-05 03:31N 35°02' W 013°57'2216.8
2017-Oct-05 02:12N 35°06' W 013°30'317.1
2017-Oct-05 02:00N 35°07' W 013°26'916.9
2017-Oct-05 01:29N 35°08' W 013°16'816.8
2017-Oct-05 01:00N 35°10' W 013°06'2016.8
2017-Oct-04 23:49N 35°13' W 012°42'517.2
2017-Oct-04 23:30N 35°14' W 012°35'917.6
2017-Oct-04 23:01N 35°15' W 012°25'917.4
2017-Oct-04 22:29N 35°17' W 012°14'817.3
2017-Oct-04 22:01N 35°18' W 012°04'917.8
2017-Oct-04 21:31N 35°20' W 011°53'917.8
2017-Oct-04 21:00N 35°21' W 011°42'917.9
2017-Oct-04 20:31N 35°23' W 011°31'1018.1
2017-Oct-04 19:57N 35°24' W 011°19'818.2
2017-Oct-04 19:30N 35°26' W 011°09'1018.1
2017-Oct-04 18:58N 35°27' W 010°58'4417.9
2017-Oct-04 16:30N 35°34' W 010°04'1317.8
2017-Oct-04 15:45N 35°36' W 009°48'417.9
2017-Oct-04 15:30N 35°36' W 009°43'917.7
2017-Oct-04 15:00N 35°37' W 009°32'917.7
2017-Oct-04 14:31N 35°39' W 009°21'2317.6
2017-Oct-04 13:12N 35°42' W 008°53'317.4
2017-Oct-04 13:01N 35°42' W 008°49'917.3
2017-Oct-04 12:31N 35°43' W 008°38'917.8
2017-Oct-04 12:01N 35°45' W 008°28'918.0
2017-Oct-04 11:31N 35°46' W 008°17'918.0
2017-Oct-04 11:00N 35°47' W 008°05'1017.8
2017-Oct-04 10:27N 35°48' W 007°54'817.9
2017-Oct-04 10:00N 35°49' W 007°44'917.8
2017-Oct-04 09:31N 35°50' W 007°33'917.8
2017-Oct-04 09:00N 35°51' W 007°22'31016.8
2017-Oct-03 14:32N 37°09' W 001°09'1018.2
2017-Oct-03 13:58N 37°16' W 000°59'818.1
2017-Oct-03 13:30N 37°21' W 000°51'918.3
2017-Oct-03 13:00N 37°28' W 000°43'918.1
2017-Oct-03 12:30N 37°34' W 000°35'918.0
2017-Oct-03 12:00N 37°41' W 000°28'917.8
2017-Oct-03 11:29N 37°49' W 000°21'  

Dump ship's entire track history